createdAt,value
2019-05-25T00:01:55.217Z,16.04
2019-05-25T00:04:27.257Z,16.02
2019-05-25T00:06:59.197Z,16.04
2019-05-25T00:09:31.201Z,15.99
2019-05-25T00:12:03.076Z,15.95
2019-05-25T00:14:34.940Z,15.98
2019-05-25T00:17:06.749Z,15.98
2019-05-25T00:19:38.556Z,16.03
2019-05-25T00:22:10.353Z,15.97
2019-05-25T00:24:42.248Z,15.88
2019-05-25T00:27:14.121Z,15.78
2019-05-25T00:29:46.001Z,15.62
2019-05-25T00:32:18.427Z,15.66
2019-05-25T00:34:50.483Z,15.59
2019-05-25T00:37:22.365Z,15.55
2019-05-25T00:39:54.228Z,15.39
2019-05-25T00:42:26.144Z,15.32
2019-05-25T00:44:58.340Z,15.38
2019-05-25T00:47:30.373Z,15.45
2019-05-25T00:50:03.246Z,15.37
2019-05-25T00:52:35.296Z,15.41
2019-05-25T00:55:07.944Z,15.36
2019-05-25T00:57:39.800Z,15.37
2019-05-25T01:00:11.780Z,15.37
2019-05-25T01:02:43.678Z,15.34
2019-05-25T01:05:15.737Z,15.19
2019-05-25T01:07:47.629Z,15.22
2019-05-25T01:10:19.606Z,15.09
2019-05-25T01:12:51.487Z,15.09
2019-05-25T01:15:24.311Z,14.98
2019-05-25T01:17:56.257Z,15.01
2019-05-25T01:20:28.344Z,15.00
2019-05-25T01:23:00.356Z,15.05
2019-05-25T01:25:33.584Z,15.02
2019-05-25T01:28:05.451Z,15.02
2019-05-25T01:30:37.530Z,15.04
2019-05-25T01:33:10.743Z,15.03
2019-05-25T01:35:42.813Z,15.06
2019-05-25T01:38:14.826Z,15.09
2019-05-25T01:40:48.024Z,15.09
2019-05-25T01:43:19.825Z,15.07
2019-05-25T01:45:52.536Z,15.10
2019-05-25T01:48:24.594Z,15.10
2019-05-25T01:50:57.204Z,15.05
2019-05-25T01:53:29.022Z,14.93
2019-05-25T01:56:00.907Z,14.93
2019-05-25T01:58:32.778Z,14.90
2019-05-25T02:01:04.581Z,14.77
2019-05-25T02:03:36.471Z,14.76
2019-05-25T02:06:08.418Z,14.73
2019-05-25T02:08:40.456Z,14.77
2019-05-25T02:11:12.341Z,14.81
2019-05-25T02:13:54.032Z,14.77
2019-05-25T02:16:25.931Z,14.60
2019-05-25T02:18:57.801Z,14.60
2019-05-25T02:21:29.658Z,14.48
2019-05-25T02:24:02.629Z,14.48
2019-05-25T02:26:34.579Z,14.49
2019-05-25T02:29:06.716Z,14.33
2019-05-25T02:31:38.549Z,14.34
2019-05-25T02:34:10.421Z,14.29
2019-05-25T02:36:42.236Z,14.26
2019-05-25T02:39:14.054Z,14.19
2019-05-25T02:41:45.925Z,14.17
2019-05-25T02:44:17.812Z,14.13
2019-05-25T02:46:49.701Z,14.08
2019-05-25T02:49:21.514Z,14.02
2019-05-25T02:51:53.606Z,14.04
2019-05-25T02:54:25.470Z,14.05
2019-05-25T02:56:57.609Z,14.01
2019-05-25T02:59:29.410Z,13.96
2019-05-25T03:02:01.208Z,14.03
2019-05-25T03:04:33.120Z,14.08
2019-05-25T03:07:04.921Z,14.08
2019-05-25T03:09:38.519Z,14.15
2019-05-25T03:12:10.343Z,14.27
2019-05-25T03:14:42.231Z,14.30
2019-05-25T03:17:15.006Z,14.35
2019-05-25T03:19:46.894Z,14.43
2019-05-25T03:22:18.699Z,14.47
2019-05-25T03:24:50.677Z,14.55
2019-05-25T03:27:23.073Z,14.67
2019-05-25T03:29:55.689Z,14.59
2019-05-25T03:32:27.707Z,14.77
2019-05-25T03:34:59.664Z,14.79
2019-05-25T03:37:31.535Z,14.68
2019-05-25T03:40:03.419Z,14.76
2019-05-25T03:42:35.408Z,14.76
2019-05-25T03:45:07.532Z,14.65
2019-05-25T03:47:39.418Z,14.71
2019-05-25T03:50:11.323Z,14.73
2019-05-25T03:52:43.193Z,14.84
2019-05-25T03:55:15.451Z,14.84
2019-05-25T03:57:47.315Z,14.88
2019-05-25T04:00:31.918Z,14.87
2019-05-25T04:03:03.903Z,14.85
2019-05-25T04:05:35.837Z,14.72
2019-05-25T04:08:07.720Z,14.62
2019-05-25T04:10:39.653Z,14.67
2019-05-25T04:13:11.626Z,14.59
2019-05-25T04:15:43.443Z,14.51
2019-05-25T04:18:15.327Z,14.51
2019-05-25T04:20:47.294Z,14.71
2019-05-25T04:23:19.202Z,14.71
2019-05-25T04:25:51.402Z,14.87
2019-05-25T04:28:23.373Z,14.92
2019-05-25T04:30:55.259Z,14.88
2019-05-25T04:33:27.289Z,14.92
2019-05-25T04:35:59.195Z,15.01
2019-05-25T04:38:31.050Z,15.20
2019-05-25T04:41:02.845Z,15.16
2019-05-25T04:43:34.637Z,15.10
2019-05-25T04:46:06.450Z,15.09
2019-05-25T04:48:38.283Z,15.16
2019-05-25T04:51:10.076Z,15.16
2019-05-25T04:53:41.890Z,15.34
2019-05-25T04:56:13.682Z,15.34
2019-05-25T04:58:45.717Z,15.43
2019-05-25T05:01:17.716Z,15.47
2019-05-25T05:03:49.582Z,15.47
2019-05-25T05:06:21.472Z,15.69
2019-05-25T05:08:53.297Z,15.85
2019-05-25T05:11:25.353Z,15.85
2019-05-25T05:13:57.270Z,15.94
2019-05-25T05:16:29.258Z,15.85
2019-05-25T05:19:01.110Z,15.97
2019-05-25T05:21:33.389Z,16.06
2019-05-25T05:24:05.549Z,15.91
2019-05-25T05:26:37.427Z,15.83
2019-05-25T05:29:09.219Z,15.74
2019-05-25T05:31:41.005Z,15.75
2019-05-25T05:34:12.859Z,15.98
2019-05-25T05:36:45.285Z,16.00
2019-05-25T05:39:17.071Z,15.96
2019-05-25T05:41:49.432Z,15.96
2019-05-25T05:44:22.853Z,15.94
2019-05-25T05:46:55.246Z,15.90
2019-05-25T05:49:28.628Z,16.04
2019-05-25T05:52:03.683Z,16.01
2019-05-25T05:54:35.651Z,16.03
2019-05-25T05:57:12.111Z,16.17
2019-05-25T05:59:41.025Z,16.26
2019-05-25T06:02:12.871Z,16.19
2019-05-25T06:04:44.668Z,16.29
2019-05-25T06:07:16.533Z,16.25
2019-05-25T06:09:48.384Z,16.24
2019-05-25T06:12:20.399Z,16.23
2019-05-25T06:14:52.457Z,16.21
2019-05-25T06:17:24.360Z,16.16
2019-05-25T06:19:57.357Z,16.18
2019-05-25T06:22:29.167Z,16.25
2019-05-25T06:25:01.031Z,16.22
2019-05-25T06:27:34.004Z,16.26
2019-05-25T06:30:06.916Z,16.35
2019-05-25T06:32:38.959Z,16.45
2019-05-25T06:35:11.082Z,16.45
2019-05-25T06:37:42.957Z,16.37
2019-05-25T06:40:15.043Z,16.36
2019-05-25T06:42:46.911Z,16.44
2019-05-25T06:45:19.191Z,16.60
2019-05-25T06:47:51.062Z,16.69
2019-05-25T06:50:22.854Z,16.72
2019-05-25T06:52:57.833Z,16.79
2019-05-25T06:55:28.408Z,16.84
2019-05-25T06:58:00.414Z,16.87
2019-05-25T07:00:32.279Z,16.97
2019-05-25T07:03:04.069Z,16.93
2019-05-25T07:05:36.004Z,16.91
2019-05-25T07:08:07.917Z,16.95
2019-05-25T07:10:39.893Z,16.82
2019-05-25T07:13:11.808Z,16.94
2019-05-25T07:15:43.690Z,16.96
2019-05-25T07:18:15.555Z,17.22
2019-05-25T07:20:47.426Z,17.41
2019-05-25T07:23:19.316Z,17.44
2019-05-25T07:25:51.207Z,17.49
2019-05-25T07:28:23.067Z,17.47
2019-05-25T07:30:54.904Z,17.53
2019-05-25T07:33:26.742Z,17.64
2019-05-25T07:35:58.621Z,17.82
2019-05-25T07:38:31.390Z,17.71
2019-05-25T07:41:03.210Z,17.62
2019-05-25T07:43:35.094Z,17.52
2019-05-25T07:46:06.970Z,17.70
2019-05-25T07:48:38.782Z,17.71
2019-05-25T07:51:10.580Z,17.72
2019-05-25T07:53:42.450Z,17.71
2019-05-25T07:56:14.235Z,17.75
2019-05-25T07:58:46.098Z,17.79
2019-05-25T08:01:18.104Z,17.79
2019-05-25T08:03:50.246Z,17.86
2019-05-25T08:06:22.285Z,17.86
2019-05-25T08:08:54.102Z,17.92
2019-05-25T08:11:25.932Z,18.14
2019-05-25T08:13:57.768Z,18.19
2019-05-25T08:16:29.625Z,18.50
2019-05-25T08:19:02.960Z,18.44
2019-05-25T08:21:37.118Z,18.52
2019-05-25T08:24:09.212Z,18.47
2019-05-25T08:26:41.156Z,18.40
2019-05-25T08:29:13.107Z,18.66
2019-05-25T08:31:45.234Z,18.63
2019-05-25T08:34:17.106Z,18.65
2019-05-25T08:36:49.212Z,18.70
2019-05-25T08:39:23.674Z,18.64
2019-05-25T08:41:55.519Z,18.77
2019-05-25T08:44:28.365Z,18.83
2019-05-25T08:47:00.411Z,19.06
2019-05-25T08:49:32.272Z,19.21
2019-05-25T08:52:04.334Z,19.27
2019-05-25T08:54:36.210Z,19.16
2019-05-25T08:57:08.071Z,19.28
2019-05-25T08:59:39.896Z,19.25
2019-05-25T09:02:11.787Z,19.27
2019-05-25T09:04:43.660Z,19.45
2019-05-25T09:07:15.523Z,19.30
2019-05-25T09:09:47.393Z,19.42
2019-05-25T09:12:19.267Z,19.15
2019-05-25T09:14:51.115Z,19.11
2019-05-25T09:17:22.987Z,19.37
2019-05-25T09:19:54.933Z,19.31
2019-05-25T09:22:26.772Z,19.40
2019-05-25T09:24:58.862Z,19.36
2019-05-25T09:27:30.887Z,19.37
2019-05-25T09:30:02.785Z,19.56
2019-05-25T09:32:34.644Z,19.59
2019-05-25T09:35:06.562Z,19.65
2019-05-25T09:37:39.505Z,19.82
2019-05-25T09:40:11.504Z,19.86
2019-05-25T09:42:43.919Z,19.95
2019-05-25T09:45:15.830Z,20.12
2019-05-25T09:47:48.682Z,20.11
2019-05-25T09:50:20.577Z,20.39
2019-05-25T09:52:52.912Z,20.44
2019-05-25T09:55:24.752Z,20.67
2019-05-25T09:57:56.615Z,20.46
2019-05-25T10:00:29.105Z,20.65
2019-05-25T10:03:01.447Z,20.63
2019-05-25T10:05:33.845Z,20.41
2019-05-25T10:08:06.355Z,20.73
2019-05-25T10:10:38.967Z,21.06
2019-05-25T10:13:11.406Z,20.69
2019-05-25T10:15:43.856Z,20.75
2019-05-25T10:18:17.743Z,20.89
2019-05-25T10:20:51.236Z,21.44
2019-05-25T10:23:23.685Z,21.34
2019-05-25T10:25:55.540Z,21.52
2019-05-25T10:28:28.024Z,21.88
2019-05-25T10:31:00.386Z,21.68
2019-05-25T10:33:33.217Z,22.10
2019-05-25T10:36:05.336Z,21.68
2019-05-25T10:38:37.909Z,21.95
2019-05-25T10:41:10.609Z,21.98
2019-05-25T10:43:43.288Z,21.88
2019-05-25T10:46:15.691Z,21.64
2019-05-25T10:48:48.837Z,22.13
2019-05-25T10:51:21.098Z,22.54
2019-05-25T10:53:52.987Z,22.69
2019-05-25T10:56:24.933Z,22.50
2019-05-25T10:58:56.960Z,22.10
2019-05-25T11:01:28.960Z,22.28
2019-05-25T11:04:00.984Z,22.64
2019-05-25T11:06:34.945Z,22.84
2019-05-25T11:09:08.160Z,23.21
2019-05-25T11:11:40.850Z,23.43
2019-05-25T11:14:13.726Z,23.39
2019-05-25T11:16:46.062Z,23.01
2019-05-25T11:19:18.684Z,22.76
2019-05-25T11:21:51.051Z,22.28
2019-05-25T11:24:23.709Z,22.04
2019-05-25T11:26:59.587Z,22.11
2019-05-25T11:29:30.877Z,22.47
2019-05-25T11:32:06.040Z,22.73
2019-05-25T11:34:38.645Z,23.00
2019-05-25T11:37:11.263Z,22.99
2019-05-25T11:39:43.444Z,22.99
2019-05-25T11:42:15.574Z,23.00
2019-05-25T11:44:48.727Z,22.97
2019-05-25T11:47:21.045Z,23.55
2019-05-25T11:49:53.010Z,23.66
2019-05-25T11:52:25.065Z,23.41
2019-05-25T11:54:56.877Z,22.93
2019-05-25T11:57:29.450Z,23.23
2019-05-25T12:00:01.892Z,22.79
2019-05-25T12:02:34.791Z,22.65
2019-05-25T12:05:08.118Z,22.33
2019-05-25T12:07:44.636Z,22.42
2019-05-25T12:10:17.390Z,22.09
2019-05-25T12:12:49.790Z,22.08
2019-05-25T12:15:22.772Z,22.35
2019-05-25T12:17:55.289Z,22.43
2019-05-25T12:20:27.843Z,23.38
2019-05-25T12:23:00.064Z,23.29
2019-05-25T12:25:32.019Z,22.82
2019-05-25T12:28:04.893Z,22.45
2019-05-25T12:30:40.907Z,22.48
2019-05-25T12:33:11.259Z,22.33
2019-05-25T12:35:45.156Z,23.15
2019-05-25T12:38:16.832Z,23.13
2019-05-25T12:40:53.620Z,23.26
2019-05-25T12:43:23.105Z,23.55
2019-05-25T12:45:55.648Z,23.38
2019-05-25T12:48:27.694Z,23.15
2019-05-25T12:50:59.480Z,22.96
2019-05-25T12:53:31.336Z,23.02
2019-05-25T12:56:03.826Z,22.78
2019-05-25T12:58:36.351Z,22.89
2019-05-25T13:01:08.461Z,23.09
2019-05-25T13:03:40.770Z,22.99
2019-05-25T13:06:13.839Z,23.27
2019-05-25T13:08:45.806Z,23.03
2019-05-25T13:11:18.263Z,23.19
2019-05-25T13:13:50.754Z,23.47
2019-05-25T13:16:24.054Z,23.88
2019-05-25T13:18:56.827Z,24.05
2019-05-25T13:21:29.379Z,24.00
2019-05-25T13:24:01.359Z,24.08
2019-05-25T13:26:33.222Z,24.11
2019-05-25T13:29:05.008Z,24.14
2019-05-25T13:31:36.814Z,23.98
2019-05-25T13:34:08.707Z,24.00
2019-05-25T13:36:40.488Z,24.06
2019-05-25T13:39:12.352Z,24.17
2019-05-25T13:41:44.146Z,24.02
2019-05-25T13:44:15.943Z,23.71
2019-05-25T13:46:47.752Z,23.19
2019-05-25T13:49:19.704Z,22.97
2019-05-25T13:51:52.057Z,23.37
2019-05-25T13:54:24.954Z,23.91
2019-05-25T13:56:57.636Z,23.95
2019-05-25T13:59:30.386Z,24.36
2019-05-25T14:02:03.323Z,24.99
2019-05-25T14:04:35.919Z,25.08
2019-05-25T14:07:08.098Z,25.33
2019-05-25T14:09:40.565Z,25.67
2019-05-25T14:12:12.627Z,25.54
2019-05-25T14:14:44.546Z,25.70
2019-05-25T14:17:16.439Z,25.35
2019-05-25T14:19:48.304Z,25.65
2019-05-25T14:22:20.299Z,25.56
2019-05-25T14:24:52.153Z,25.65
2019-05-25T14:27:23.997Z,26.02
2019-05-25T14:29:56.004Z,26.44
2019-05-25T14:32:27.945Z,26.33
2019-05-25T14:34:59.727Z,26.53
2019-05-25T14:37:31.665Z,25.92
2019-05-25T14:40:03.587Z,25.02
2019-05-25T14:42:35.446Z,24.89
2019-05-25T14:45:07.591Z,25.01
2019-05-25T14:47:39.479Z,25.02
2019-05-25T14:50:11.444Z,25.19
2019-05-25T14:52:43.737Z,25.54
2019-05-25T14:55:15.882Z,25.97
2019-05-25T14:57:48.074Z,25.27
2019-05-25T15:00:20.926Z,24.95
2019-05-25T15:02:53.114Z,25.44
2019-05-25T15:05:26.015Z,25.36
2019-05-25T15:07:58.058Z,25.17
2019-05-25T15:10:29.834Z,24.41
2019-05-25T15:13:01.765Z,23.65
2019-05-25T15:15:33.535Z,23.32
2019-05-25T15:18:05.332Z,23.19
2019-05-25T15:20:37.107Z,22.97
2019-05-25T15:23:08.921Z,22.89
2019-05-25T15:25:40.696Z,22.97
2019-05-25T15:28:12.580Z,23.44
2019-05-25T15:30:44.372Z,22.86
2019-05-25T15:33:16.224Z,22.34
2019-05-25T15:35:48.017Z,21.70
2019-05-25T15:38:19.789Z,21.73
2019-05-25T15:40:51.667Z,21.45
2019-05-25T15:43:23.508Z,21.52
2019-05-25T15:45:55.741Z,21.32
2019-05-25T15:48:27.630Z,21.16
2019-05-25T15:50:59.782Z,21.19
2019-05-25T15:53:31.812Z,21.36
2019-05-25T15:56:03.685Z,21.60
2019-05-25T15:58:35.626Z,21.58
2019-05-25T16:01:07.411Z,21.63
2019-05-25T16:03:39.275Z,21.62
2019-05-25T16:06:11.131Z,21.64
2019-05-25T16:08:43.001Z,21.70
2019-05-25T16:11:14.798Z,21.71
2019-05-25T16:13:46.745Z,21.35
2019-05-25T16:16:18.538Z,21.44
2019-05-25T16:18:50.413Z,21.61
2019-05-25T16:21:22.302Z,21.31
2019-05-25T16:23:54.171Z,21.21
2019-05-25T16:26:26.222Z,21.00
2019-05-25T16:28:58.118Z,20.73
2019-05-25T16:31:29.976Z,20.85
2019-05-25T16:34:01.845Z,20.68
2019-05-25T16:36:33.642Z,20.34
2019-05-25T16:39:07.085Z,20.36
2019-05-25T16:41:38.953Z,20.25
2019-05-25T16:44:10.798Z,20.33
2019-05-25T16:46:42.635Z,20.09
2019-05-25T16:49:14.801Z,19.74
2019-05-25T16:51:46.674Z,19.85
2019-05-25T16:54:18.533Z,19.81
2019-05-25T16:56:50.325Z,19.62
2019-05-25T16:59:22.192Z,19.51
2019-05-25T17:01:54.101Z,19.61
2019-05-25T17:04:30.956Z,19.57
2019-05-25T17:07:02.915Z,19.75
2019-05-25T17:09:35.341Z,19.63
2019-05-25T17:12:07.218Z,19.71
2019-05-25T17:14:39.170Z,19.70
2019-05-25T17:17:11.049Z,19.81
2019-05-25T17:19:43.280Z,19.62
2019-05-25T17:22:15.253Z,19.57
2019-05-25T17:24:47.121Z,19.66
2019-05-25T17:27:19.055Z,19.55
2019-05-25T17:29:50.958Z,19.34
2019-05-25T17:32:22.981Z,19.36
2019-05-25T17:34:54.768Z,19.36
2019-05-25T17:37:26.644Z,19.19
2019-05-25T17:39:58.915Z,19.16
2019-05-25T17:42:30.792Z,19.36
2019-05-25T17:45:03.676Z,19.32
2019-05-25T17:47:35.537Z,19.19
2019-05-25T17:50:07.483Z,19.07
2019-05-25T17:52:39.331Z,19.14
2019-05-25T17:55:11.221Z,19.21
2019-05-25T17:57:43.012Z,19.25
2019-05-25T18:00:15.217Z,19.10
2019-05-25T18:02:47.797Z,19.07
2019-05-25T18:05:19.655Z,19.13
2019-05-25T18:07:51.534Z,19.34
2019-05-25T18:10:23.415Z,19.45
2019-05-25T18:12:55.458Z,19.52
2019-05-25T18:15:27.324Z,19.16
2019-05-25T18:17:59.385Z,18.98
2019-05-25T18:20:31.230Z,18.96
2019-05-25T18:23:04.237Z,18.78
2019-05-25T18:25:36.663Z,18.70
2019-05-25T18:28:08.654Z,18.63
2019-05-25T18:30:40.449Z,18.46
2019-05-25T18:33:12.257Z,18.56
2019-05-25T18:35:44.852Z,18.43
2019-05-25T18:38:16.891Z,18.34
2019-05-25T18:40:49.709Z,18.23
2019-05-25T18:43:22.220Z,18.20
2019-05-25T18:45:54.414Z,18.22
2019-05-25T18:48:27.467Z,18.18
2019-05-25T18:50:59.940Z,18.13
2019-05-25T18:53:32.543Z,18.00
2019-05-25T18:56:04.515Z,17.83
2019-05-25T18:58:36.774Z,17.71
2019-05-25T19:01:08.652Z,17.55
2019-05-25T19:03:40.742Z,17.34
2019-05-25T19:06:12.990Z,17.38
2019-05-25T19:08:44.869Z,17.28
2019-05-25T19:11:17.678Z,17.13
2019-05-25T19:13:49.875Z,16.96
2019-05-25T19:16:22.255Z,16.90
2019-05-25T19:18:54.346Z,16.92
2019-05-25T19:21:26.240Z,16.95
2019-05-25T19:23:58.027Z,17.00
2019-05-25T19:26:30.017Z,16.79
2019-05-25T19:29:05.441Z,16.65
2019-05-25T19:31:37.030Z,16.56
2019-05-25T19:34:09.913Z,16.51
2019-05-25T19:36:42.688Z,16.35
2019-05-25T19:39:15.614Z,16.35
2019-05-25T19:41:48.247Z,16.32
2019-05-25T19:44:20.082Z,16.37
2019-05-25T19:46:52.295Z,16.32
2019-05-25T19:49:25.618Z,16.36
2019-05-25T19:51:58.460Z,16.32
2019-05-25T19:54:31.275Z,16.15
2019-05-25T19:57:03.664Z,16.16
2019-05-25T19:59:36.703Z,16.12
2019-05-25T20:02:08.941Z,16.13
2019-05-25T20:04:41.934Z,16.24
2019-05-25T20:07:14.540Z,16.29
2019-05-25T20:09:47.498Z,16.29
2019-05-25T20:12:19.707Z,16.26
2019-05-25T20:14:51.804Z,16.26
2019-05-25T20:17:26.969Z,16.14
2019-05-25T20:20:03.619Z,16.26
2019-05-25T20:22:36.184Z,16.28
2019-05-25T20:25:09.436Z,16.26
2019-05-25T20:27:41.763Z,16.28
2019-05-25T20:30:14.076Z,16.31
2019-05-25T20:32:47.235Z,16.24
2019-05-25T20:35:32.507Z,16.16
2019-05-25T20:37:53.147Z,16.14
2019-05-25T20:40:26.088Z,16.20
2019-05-25T20:42:58.323Z,16.19
2019-05-25T20:45:30.892Z,16.21
2019-05-25T20:48:02.851Z,16.25
2019-05-25T20:50:34.752Z,16.24
2019-05-25T20:53:07.504Z,16.13
2019-05-25T20:55:40.077Z,16.05
2019-05-25T20:58:12.522Z,15.92
2019-05-25T21:00:45.583Z,15.89
2019-05-25T21:03:20.276Z,15.80
2019-05-25T21:05:53.817Z,15.79
2019-05-25T21:08:30.953Z,15.77
2019-05-25T21:11:02.983Z,15.84
2019-05-25T21:13:36.222Z,15.85
2019-05-25T21:16:08.114Z,15.88
2019-05-25T21:18:40.387Z,15.81
2019-05-25T21:21:12.474Z,15.83
2019-05-25T21:23:44.530Z,15.76
2019-05-25T21:26:16.366Z,15.77
2019-05-25T21:28:48.237Z,15.69
2019-05-25T21:31:23.636Z,15.68
2019-05-25T21:33:54.163Z,15.64
2019-05-25T21:36:26.225Z,15.62
2019-05-25T21:38:58.300Z,15.62
2019-05-25T21:41:30.137Z,15.47
2019-05-25T21:44:02.049Z,15.42
2019-05-25T21:46:34.636Z,15.38
2019-05-25T21:49:07.168Z,15.25
2019-05-25T21:51:39.025Z,15.19
2019-05-25T21:54:11.846Z,15.19
2019-05-25T21:56:43.686Z,15.21
2019-05-25T21:59:15.715Z,15.15
2019-05-25T22:01:47.918Z,15.03
2019-05-25T22:04:19.806Z,14.83
2019-05-25T22:06:51.715Z,14.75
2019-05-25T22:09:23.597Z,14.67
2019-05-25T22:11:57.907Z,14.65
2019-05-25T22:14:32.652Z,14.59
2019-05-25T22:17:04.590Z,14.60
2019-05-25T22:19:36.480Z,14.51
2019-05-25T22:22:08.643Z,14.44
2019-05-25T22:24:41.049Z,14.33
2019-05-25T22:27:13.536Z,14.23
2019-05-25T22:29:45.534Z,14.19
2019-05-25T22:32:17.585Z,14.12
2019-05-25T22:34:49.519Z,13.93
2019-05-25T22:37:22.025Z,13.95
2019-05-25T22:39:54.706Z,14.12
2019-05-25T22:42:26.820Z,14.19
2019-05-25T22:44:58.693Z,14.19
2019-05-25T22:47:30.743Z,14.09
2019-05-25T22:50:02.707Z,14.06
2019-05-25T22:52:34.592Z,14.10
2019-05-25T22:55:06.782Z,14.05
2019-05-25T22:57:38.987Z,14.12
2019-05-25T23:00:11.332Z,14.12
2019-05-25T23:02:43.951Z,14.04
2019-05-25T23:05:16.000Z,14.04
2019-05-25T23:07:47.905Z,14.01
2019-05-25T23:10:19.983Z,13.96
2019-05-25T23:12:51.913Z,13.87
2019-05-25T23:15:24.030Z,13.86
2019-05-25T23:17:55.835Z,13.86
2019-05-25T23:20:27.714Z,13.83
2019-05-25T23:23:00.553Z,13.79
2019-05-25T23:25:32.423Z,13.82
2019-05-25T23:28:04.232Z,13.82
2019-05-25T23:30:36.064Z,13.72
2019-05-25T23:33:07.946Z,13.69
2019-05-25T23:35:40.017Z,13.66
2019-05-25T23:38:11.912Z,13.60
2019-05-25T23:40:43.778Z,13.62
2019-05-25T23:43:16.209Z,13.62
2019-05-25T23:45:48.086Z,13.58
2019-05-25T23:48:19.970Z,13.56
2019-05-25T23:50:51.866Z,13.55
2019-05-25T23:53:23.699Z,13.53
2019-05-25T23:55:55.570Z,13.56
2019-05-25T23:58:27.464Z,13.56
